Time;durP1;ratioP1;P1;durP2;ratioP2;P2;SDS_P1;SDS_P2;PMS_P1;PMS_P2;Temp;Humidity;BMP_temperature;BMP_pressure;BME280_temperature;BME280_humidity;BME280_pressure;Samples;Min_cycle;Max_cycle;Signal;HPM_P1;HPM_P2
2021/07/26 08:51:55;;;;;;;;;;;;;;;20.55;63.28;100024.00;5179882;27;20535;-54
2021/07/26 08:54:22;;;;;;;7.57;3.42;;;;;;;20.35;65.74;100024.19;5177032;27;19921;-61
2021/07/26 08:56:50;;;;;;;4.55;3.20;;;;;;;20.24;65.25;100028.44;5178967;27;20089;-61
2021/07/26 08:59:15;;;;;;;6.55;3.30;;;;;;;20.13;65.91;100024.56;5178858;27;20653;-70
2021/07/26 09:01:43;;;;;;;5.47;3.60;;;;;;;20.22;65.59;100022.44;5176357;27;20046;-59
2021/07/26 09:04:09;;;;;;;3.92;3.50;;;;;;;20.28;65.00;100023.41;5177406;27;20101;-57
2021/07/26 09:06:34;;;;;;;4.57;3.45;;;;;;;20.55;64.28;100033.91;5178699;27;20125;-57
2021/07/26 09:09:01;;;;;;;3.65;3.25;;;;;;;20.65;63.46;100025.38;5179745;27;20034;-60
2021/07/26 09:11:42;;;;;;;4.03;3.25;;;;;;;20.70;63.15;100028.22;5177423;27;20037;-58
2021/07/26 09:14:08;;;;;;;3.97;3.08;;;;;;;20.65;63.72;100025.38;5176804;27;20041;-56
2021/07/26 09:16:34;;;;;;;6.93;3.67;;;;;;;20.62;63.38;100033.88;5178566;27;20404;-56
2021/07/26 09:19:02;;;;;;;6.05;3.30;;;;;;;20.66;63.43;100035.88;5151447;27;20048;-57
2021/07/26 09:21:50;;;;;;;3.47;3.00;;;;;;;20.74;63.32;100040.13;5177674;27;20110;-59
2021/07/26 09:24:26;;;;;;;7.68;3.33;;;;;;;20.77;63.43;100044.25;5177564;27;20512;-57
2021/07/26 09:26:53;;;;;;;4.90;3.08;;;;;;;20.81;63.30;100040.09;5178290;27;20492;-57
2021/07/26 09:29:29;;;;;;;5.38;3.72;;;;;;;20.85;62.97;100046.63;5177753;27;20113;-56
2021/07/26 09:32:00;;;;;;;3.30;2.75;;;;;;;20.86;63.30;100039.41;5178130;27;20030;-60
2021/07/26 09:34:26;;;;;;;4.10;2.95;;;;;;;20.89;63.16;100047.03;5150527;27;20026;-59
2021/07/26 09:36:52;;;;;;;4.40;3.80;;;;;;;20.93;63.43;100051.75;5177894;27;20090;-57
2021/07/26 09:39:26;;;;;;;7.90;3.80;;;;;;;20.89;62.97;100052.41;5178753;27;20033;-60
2021/07/26 09:41:53;;;;;;;6.22;3.55;;;;;;;20.92;62.98;100042.06;5178082;27;20105;-59
2021/07/26 09:44:26;;;;;;;5.35;3.75;;;;;;;20.97;62.74;100035.19;5178734;27;20030;-56
2021/07/26 09:46:53;;;;;;;8.18;3.80;;;;;;;20.96;62.81;100036.25;5177853;27;20421;-56
2021/07/26 09:49:21;;;;;;;8.32;3.97;;;;;;;20.98;62.85;100020.69;5176974;27;20375;-65
2021/07/26 09:52:09;;;;;;;12.32;4.22;;;;;;;20.99;63.02;100019.66;5177018;27;20046;-65
2021/07/26 09:54:52;;;;;;;7.03;3.90;;;;;;;20.97;63.18;100019.91;5177864;27;20477;-65
2021/07/26 09:57:18;;;;;;;11.13;4.00;;;;;;;21.02;63.03;100022.72;5175648;27;20770;-66
2021/07/26 09:59:48;;;;;;;17.30;5.50;;;;;;;21.07;63.59;100020.19;5177999;27;20038;-65
2021/07/26 10:02:18;;;;;;;15.93;5.68;;;;;;;21.05;63.74;100027.63;5169437;27;20033;-66
2021/07/26 10:04:46;;;;;;;11.95;5.65;;;;;;;21.06;63.38;100033.84;5162948;27;20030;-66
2021/07/26 10:07:15;;;;;;;40.90;30.95;;;;;;;21.02;63.06;100036.16;5162885;27;20038;-65
2021/07/26 10:09:42;;;;;;;68.20;50.78;;;;;;;20.99;62.85;100047.34;5157480;27;20033;-64
2021/07/26 10:12:15;;;;;;;43.15;33.60;;;;;;;21.01;62.91;100052.50;5154462;27;20041;-65
2021/07/26 10:14:41;;;;;;;31.85;24.75;;;;;;;20.97;62.52;100046.75;5155457;27;20118;-66
2021/07/26 10:17:07;;;;;;;28.00;19.98;;;;;;;20.99;62.70;100047.34;5146358;27;20392;-64
2021/07/26 10:19:33;;;;;;;18.38;13.18;;;;;;;21.02;62.47;100043.41;5126472;27;20421;-66
2021/07/26 10:22:00;;;;;;;12.90;8.90;;;;;;;21.00;61.99;100038.25;5145427;27;20045;-68
2021/07/26 10:24:35;;;;;;;13.98;11.05;;;;;;;21.02;62.18;100029.97;5144177;27;20026;-68
2021/07/26 10:27:09;;;;;;;15.75;7.60;;;;;;;21.09;62.34;100032.59;5142935;27;20497;-65
2021/07/26 10:29:57;;;;;;;13.20;8.05;;;;;;;21.19;62.70;100039.06;5143241;27;20150;-63
2021/07/26 10:32:28;;;;;;;8.80;6.10;;;;;;;21.25;62.63;100041.88;5122010;27;20038;-59
2021/07/26 10:34:58;;;;;;;9.55;5.78;;;;;;;21.29;62.79;100037.72;5163069;27;20022;-57
2021/07/26 10:37:47;;;;;;;9.48;5.53;;;;;;;21.29;62.80;100043.09;5163195;27;20539;-58
2021/07/26 10:40:20;;;;;;;8.32;5.55;;;;;;;21.30;62.69;100042.03;5162908;27;20038;-56
2021/07/26 10:42:46;;;;;;;8.20;4.40;;;;;;;21.33;62.93;100044.28;5134252;27;20061;-58
2021/07/26 10:45:31;;;;;;;9.45;5.07;;;;;;;21.34;62.43;100037.03;5163141;27;20027;-62
2021/07/26 10:50:48;;;;;;;8.27;4.22;;;;;;;21.34;62.24;100037.03;5162882;27;20042;-58
2021/07/26 10:53:32;;;;;;;5.60;3.97;;;;;;;21.37;61.88;100036.59;5163031;27;20444;-65
2021/07/26 10:56:08;;;;;;;6.32;4.38;;;;;;;21.37;61.99;100047.34;5135587;27;20045;-60
2021/07/26 10:58:43;;;;;;;5.90;3.80;;;;;;;21.39;61.88;100046.03;5162983;27;20433;-61
2021/07/26 11:01:21;;;;;;;5.10;3.72;;;;;;;21.38;61.72;100048.97;5135882;27;20074;-59
2021/07/26 11:03:52;;;;;;;5.15;3.60;;;;;;;21.41;61.43;100043.13;5161359;27;20030;-72
2021/07/26 11:09:20;;;;;;;7.35;4.03;;;;;;;;;;5160724;27;20117;-71
2021/07/26 11:11:46;;;;;;;5.13;3.92;;;;;;;21.40;61.13;100023.50;5163260;27;20053;-71
2021/07/26 11:14:13;;;;;;;10.43;3.78;;;;;;;21.42;60.98;100017.91;5159797;27;20081;-71
2021/07/26 11:16:56;;;;;;;5.82;3.70;;;;;;;21.36;60.60;100026.88;5162870;27;20031;-72
2021/07/26 11:19:40;;;;;;;5.78;3.85;;;;;;;21.39;60.74;100013.78;5162308;27;20031;-70
2021/07/26 11:22:05;;;;;;;7.70;4.00;;;;;;;21.42;60.43;100010.66;5162450;27;20527;-70
2021/07/26 11:24:50;;;;;;;7.57;3.20;;;;;;;21.41;60.69;100011.69;5133641;27;20122;-71
2021/07/26 11:27:22;;;;;;;3.87;3.10;;;;;;;21.40;60.67;100012.75;5131909;27;20119;-70
2021/07/26 11:29:49;;;;;;;4.13;3.15;;;;;;;21.42;60.51;100013.34;5155460;27;20065;-70
2021/07/26 11:32:23;;;;;;;9.43;3.78;;;;;;;21.44;60.58;100007.72;5131763;27;20045;-71
2021/07/26 11:34:54;;;;;;;5.13;3.58;;;;;;;;;;5138707;27;20500;-71
2021/07/26 11:37:32;;;;;;;4.40;3.30;;;;;;;21.41;60.76;100014.38;5133426;27;20047;-70
2021/07/26 11:39:59;;;;;;;5.05;3.58;;;;;;;21.39;60.68;100013.00;5141825;27;20062;-70
2021/07/26 11:42:31;;;;;;;5.82;3.45;;;;;;;21.42;60.93;100002.56;5153522;27;20037;-70
2021/07/26 11:44:57;;;;;;;4.50;3.58;;;;;;;21.40;60.67;100006.56;5126909;27;20037;-71
2021/07/26 11:47:33;;;;;;;4.20;3.40;;;;;;;21.39;61.11;100005.72;5153643;27;20118;-70
2021/07/26 11:49:59;;;;;;;;;;;;;;;21.36;60.91;100008.88;5174160;27;20049;-71
2021/07/26 11:52:24;;;;;;;6.32;3.20;;;;;;;21.40;61.19;100007.38;5174338;27;19919;-70
2021/07/26 11:54:50;;;;;;;5.35;3.78;;;;;;;21.37;60.95;100012.38;5137353;27;20035;-72
2021/07/26 11:57:16;;;;;;;7.57;3.97;;;;;;;21.40;61.02;100014.63;5114212;27;20035;-71
2021/07/26 11:59:55;;;;;;;4.25;3.13;;;;;;;21.41;60.80;100010.88;5114249;27;20042;-71
2021/07/26 12:02:31;;;;;;;8.82;3.70;;;;;;;;;;5143527;27;20042;-72
2021/07/26 12:05:07;;;;;;;5.78;3.45;;;;;;;21.43;60.89;100016.84;5153234;27;20019;-72
2021/07/26 12:07:41;;;;;;;6.32;3.42;;;;;;;21.39;61.03;100010.31;5161884;27;20058;-70
2021/07/26 12:10:08;;;;;;;9.50;4.32;;;;;;;21.40;60.82;100003.88;5153143;27;20039;-72
2021/07/26 12:12:49;;;;;;;7.38;3.83;;;;;;;21.44;60.64;99999.66;5134811;27;20480;-72
2021/07/26 12:15:22;;;;;;;6.65;3.50;;;;;;;21.48;60.97;100003.56;5137743;27;20035;-71
2021/07/26 12:18:07;;;;;;;9.68;3.60;;;;;;;21.49;61.02;100012.41;5145629;27;20086;-72
2021/07/26 12:20:36;;;;;;;5.10;3.42;;;;;;;21.49;61.03;100013.25;5158935;27;20027;-72
2021/07/26 12:23:22;;;;;;;7.72;3.60;;;;;;;21.51;61.24;100010.34;5163082;27;20061;-71
2021/07/26 12:25:48;;;;;;;8.98;4.15;;;;;;;21.51;61.23;99999.59;5152583;27;20031;-72
2021/07/26 12:28:16;;;;;;;5.00;3.47;;;;;;;21.50;61.26;99993.38;5143630;27;20031;-71
2021/07/26 12:30:44;;;;;;;12.05;3.10;;;;;;;21.50;61.33;99987.19;5132025;27;20031;-71
2021/07/26 12:33:14;;;;;;;5.90;3.20;;;;;;;21.51;61.12;99999.59;5132092;27;20035;-71
2021/07/26 12:35:40;;;;;;;5.80;3.00;;;;;;;21.50;61.54;99990.69;5133067;27;20064;-70
2021/07/26 12:38:20;;;;;;;7.68;3.38;;;;;;;21.47;61.16;99993.03;5135425;27;20034;-71
2021/07/26 12:41:03;;;;;;;5.75;3.28;;;;;;;21.48;61.35;99990.13;5151952;27;20507;-70
2021/07/26 12:43:28;;;;;;;4.45;2.88;;;;;;;21.45;61.21;99985.19;5136501;27;20493;-71
2021/07/26 12:45:58;;;;;;;6.18;2.85;;;;;;;21.47;60.79;99991.13;5131642;27;20034;-71
2021/07/26 12:48:26;;;;;;;4.43;2.80;;;;;;;21.51;61.17;99986.13;5148276;27;20055;-68
2021/07/26 12:50:52;;;;;;;4.60;2.65;;;;;;;21.52;60.94;99987.75;5159931;27;20081;-56
2021/07/26 12:53:18;;;;;;;6.95;3.00;;;;;;;21.51;60.97;99984.28;5156613;27;20046;-57
2021/07/26 12:55:45;;;;;;;6.30;3.42;;;;;;;21.52;60.90;99974.31;5159548;27;20035;-56
2021/07/26 12:58:22;;;;;;;4.07;2.70;;;;;;;21.53;61.08;99978.66;5160582;27;20058;-59
2021/07/26 13:00:50;;;;;;;9.25;3.30;;;;;;;21.55;61.04;99976.56;5161113;27;20478;-64
2021/07/26 13:03:18;;;;;;;11.30;3.05;;;;;;;21.58;61.08;99973.41;5160305;27;20114;-58
2021/07/26 13:05:45;;;;;;;12.63;4.05;;;;;;;21.60;61.02;99970.47;5159991;27;20042;-66
2021/07/26 13:08:12;;;;;;;5.70;2.97;;;;;;;21.60;61.13;99971.31;5160391;27;20030;-66
2021/07/26 13:10:41;;;;;;;6.88;3.67;;;;;;;21.62;60.78;99977.28;5157375;27;20094;-65
2021/07/26 13:13:08;;;;;;;7.90;3.15;;;;;;;21.59;61.24;99977.75;5127857;27;20055;-66
2021/07/26 13:15:36;;;;;;;5.72;3.00;;;;;;;21.56;61.34;99978.22;5132223;27;20393;-66
2021/07/26 13:18:03;;;;;;;4.65;2.42;;;;;;;21.56;61.18;99972.84;5130304;27;20516;-67
2021/07/26 13:20:28;;;;;;;4.47;2.78;;;;;;;21.58;61.18;99968.03;5131805;27;20161;-66
2021/07/26 13:22:54;;;;;;;5.82;3.17;;;;;;;21.58;61.23;99967.22;5157295;27;20519;-66
2021/07/26 13:25:20;;;;;;;4.07;3.13;;;;;;;21.54;61.33;99973.06;5160386;27;20031;-66
2021/07/26 13:27:46;;;;;;;6.40;2.80;;;;;;;21.53;61.37;99973.28;5115537;27;20039;-65
2021/07/26 13:30:13;;;;;;;9.23;2.90;;;;;;;21.55;61.30;99977.38;5139233;27;20034;-66
2021/07/26 13:32:39;;;;;;;2.85;2.55;;;;;;;21.58;61.23;99976.09;5144249;27;20020;-66
2021/07/26 13:35:05;;;;;;;5.75;2.90;;;;;;;21.59;61.77;99974.22;5132155;27;20031;-65
2021/07/26 13:37:32;;;;;;;6.05;2.95;;;;;;;21.56;61.37;99962.06;5132459;27;20481;-58
2021/07/26 13:39:58;;;;;;;9.52;3.30;;;;;;;21.65;61.62;99955.31;5128671;27;20449;-60
2021/07/26 13:42:25;;;;;;;6.78;3.50;;;;;;;21.70;62.13;99951.94;5161579;27;20037;-60
2021/07/26 13:44:51;;;;;;;6.30;3.42;;;;;;;21.75;61.71;99945.84;5148362;27;20058;-56
2021/07/26 13:47:17;;;;;;;5.80;2.80;;;;;;;21.73;62.07;99934.50;5152935;27;20540;-57
2021/07/26 13:49:43;;;;;;;5.68;2.80;;;;;;;21.79;60.99;99926.38;5140423;27;20031;-58
2021/07/26 13:52:08;;;;;;;6.63;3.17;;;;;;;21.83;61.04;99925.91;5133787;27;20113;-63
2021/07/26 13:54:34;;;;;;;2.97;2.67;;;;;;;21.89;60.69;99922.28;5144396;27;20469;-59
2021/07/26 13:57:01;;;;;;;5.68;3.10;;;;;;;21.93;62.03;99915.41;5147104;27;20027;-60
2021/07/26 13:59:27;;;;;;;7.72;2.92;;;;;;;21.91;60.41;99912.09;5138557;27;20031;-58
2021/07/26 14:01:53;;;;;;;10.40;3.40;;;;;;;21.97;60.42;99911.16;5136410;27;20141;-67
2021/07/26 14:04:18;;;;;;;6.97;3.10;;;;;;;21.97;60.06;99911.16;5148856;27;20027;-67
2021/07/26 14:06:44;;;;;;;4.10;2.70;;;;;;;22.00;60.63;99910.69;5136677;27;20111;-58
2021/07/26 14:09:11;;;;;;;3.55;2.58;;;;;;;21.99;59.80;99910.94;5141662;27;20043;-61
2021/07/26 14:11:37;;;;;;;7.43;3.13;;;;;;;21.99;60.54;99924.38;5152260;27;20030;-61
2021/07/26 14:14:06;;;;;;;5.85;3.00;;;;;;;21.98;60.60;99933.53;5133930;27;20032;-60
2021/07/26 14:16:32;;;;;;;3.83;2.78;;;;;;;22.02;60.80;99922.06;5132638;27;20166;-57
2021/07/26 14:18:58;;;;;;;9.98;3.05;;;;;;;22.05;59.89;99910.81;5141624;27;20245;-60
2021/07/26 14:21:24;;;;;;;6.18;2.85;;;;;;;22.14;59.76;99916.66;5133080;27;20035;-60
2021/07/26 14:23:50;;;;;;;5.97;3.03;;;;;;;22.12;60.39;99926.03;5140875;27;20459;-62
2021/07/26 14:26:16;;;;;;;4.85;3.20;;;;;;;22.11;60.30;99922.50;5132211;27;20063;-61
2021/07/26 14:28:42;;;;;;;7.07;3.10;;;;;;;22.16;60.37;99922.63;5133207;27;20168;-57
2021/07/26 14:31:08;;;;;;;4.35;3.00;;;;;;;22.20;60.39;99916.78;5132640;27;20031;-60
2021/07/26 14:33:34;;;;;;;7.20;3.38;;;;;;;22.21;59.73;99918.41;5148675;27;20023;-62
2021/07/26 14:36:00;;;;;;;10.18;3.95;;;;;;;22.23;60.12;99927.09;5135440;27;20035;-60
2021/07/26 14:38:26;;;;;;;6.47;3.35;;;;;;;22.24;60.10;99917.94;5135418;27;20037;-59
2021/07/26 14:40:52;;;;;;;8.70;3.38;;;;;;;22.28;59.52;99914.53;5132443;27;20110;-67
2021/07/26 14:43:18;;;;;;;6.30;3.45;;;;;;;22.27;60.14;99914.78;5151606;27;20034;-58
2021/07/26 14:45:44;;;;;;;6.88;3.38;;;;;;;22.26;60.21;99915.84;5151067;27;20030;-60
2021/07/26 14:48:09;;;;;;;11.13;3.40;;;;;;;22.27;60.14;99917.47;5150730;27;20480;-57
2021/07/26 14:50:35;;;;;;;5.13;3.30;;;;;;;22.30;60.08;99904.38;5132040;27;20047;-60
2021/07/26 14:53:02;;;;;;;7.80;3.17;;;;;;;22.35;59.94;99894.75;5129254;27;20646;-63
2021/07/26 14:55:27;;;;;;;6.13;3.50;;;;;;;22.37;59.57;99895.34;5152178;27;20027;-68
2021/07/26 14:57:53;;;;;;;9.13;3.72;;;;;;;22.39;59.57;99904.81;5153258;27;20045;-63
2021/07/26 15:00:19;;;;;;;5.78;3.53;;;;;;;22.45;60.37;99902.22;5145788;27;20023;-61
2021/07/26 15:02:45;;;;;;;7.50;3.55;;;;;;;22.43;59.25;99897.09;5140860;27;20045;-61
2021/07/26 15:05:11;;;;;;;8.00;3.70;;;;;;;22.39;59.18;99899.44;5141308;27;20476;-60
2021/07/26 15:07:37;;;;;;;8.05;3.90;;;;;;;22.37;59.29;99900.72;5150239;27;20031;-60
2021/07/26 15:10:04;;;;;;;23.50;3.95;;;;;;;22.36;58.91;99902.59;5149361;27;20116;-60
2021/07/26 15:12:31;;;;;;;13.40;4.15;;;;;;;22.34;59.54;99909.28;5134889;27;20033;-66
2021/07/26 15:14:57;;;;;;;12.05;3.88;;;;;;;22.29;59.30;99901.91;5149431;27;20034;-64
2021/07/26 15:17:23;;;;;;;4.88;3.90;;;;;;;22.30;59.43;99907.06;5136135;27;20492;-59
2021/07/26 15:19:49;;;;;;;7.20;4.07;;;;;;;22.30;59.62;99900.84;5135488;27;20058;-69
2021/07/26 15:22:15;;;;;;;11.05;3.97;;;;;;;22.32;59.81;99906.81;5149515;27;20070;-60
2021/07/26 15:24:42;;;;;;;7.78;4.00;;;;;;;22.33;59.89;99904.97;5131433;27;20038;-70
2021/07/26 15:27:08;;;;;;;5.82;3.90;;;;;;;22.29;59.85;99905.44;5147311;27;20034;-61
2021/07/26 15:29:34;;;;;;;6.53;3.60;;;;;;;22.33;59.61;99908.44;5149558;27;20481;-61
2021/07/26 15:32:00;;;;;;;11.10;4.60;;;;;;;22.34;60.41;99902.03;5131168;27;20043;-60
2021/07/26 15:34:28;;;;;;;8.30;4.20;;;;;;;22.37;61.22;99906.94;5111735;27;20076;-61
2021/07/26 15:36:53;;;;;;;6.28;4.15;;;;;;;22.39;61.54;99909.41;5130860;27;20110;-61
2021/07/26 15:39:19;;;;;;;6.22;3.90;;;;;;;22.32;60.72;99904.13;5142052;27;20057;-61
2021/07/26 15:41:46;;;;;;;8.23;4.80;;;;;;;22.35;61.46;99903.66;5153143;27;20121;-61
2021/07/26 15:44:12;;;;;;;9.20;4.40;;;;;;;22.40;62.40;99898.38;5153024;27;20054;-61
2021/07/26 15:46:38;;;;;;;6.93;4.30;;;;;;;22.43;63.13;99899.78;5148931;27;20047;-61
2021/07/26 15:49:04;;;;;;;8.98;4.60;;;;;;;22.44;62.47;99896.03;5150550;27;20038;-61
2021/07/26 15:51:30;;;;;;;11.30;4.60;;;;;;;22.42;61.67;99892.75;5153309;27;20484;-61
2021/07/26 15:53:56;;;;;;;5.90;4.13;;;;;;;22.39;61.04;99909.41;5153378;27;20308;-60
2021/07/26 15:56:21;;;;;;;9.27;4.07;;;;;;;22.38;60.89;99905.03;5153473;27;20035;-61
2021/07/26 15:58:47;;;;;;;5.68;3.58;;;;;;;22.34;60.51;99904.72;5153631;27;20023;-61
2021/07/26 16:01:13;;;;;;;6.82;4.03;;;;;;;22.33;60.55;99896.88;5151029;27;20392;-62
2021/07/26 16:03:39;;;;;;;9.70;4.03;;;;;;;22.31;60.73;99902.50;5153569;27;20026;-61
2021/07/26 16:06:05;;;;;;;5.68;3.90;;;;;;;22.31;60.58;99894.44;5153273;27;20026;-61
2021/07/26 16:08:31;;;;;;;7.70;4.40;;;;;;;22.30;60.64;99895.47;5153269;27;20031;-61
2021/07/26 16:10:57;;;;;;;5.35;3.88;;;;;;;22.28;61.13;99887.63;5144551;27;20054;-61
2021/07/26 16:13:22;;;;;;;9.85;4.15;;;;;;;22.28;61.03;99894.91;5132603;27;20114;-61
2021/07/26 16:15:48;;;;;;;4.95;3.72;;;;;;;22.26;61.20;99895.13;5132207;27;20031;-60
2021/07/26 16:18:14;;;;;;;6.72;4.32;;;;;;;22.26;61.02;99894.31;5114038;27;20427;-61
2021/07/26 16:20:40;;;;;;;8.57;4.00;;;;;;;22.23;60.49;99892.91;5133426;27;20485;-61
2021/07/26 16:23:06;;;;;;;5.13;3.72;;;;;;;22.20;60.38;99882.63;5143803;27;20039;-61
2021/07/26 16:25:32;;;;;;;4.70;3.67;;;;;;;22.19;60.49;99886.34;5133165;27;20131;-60
2021/07/26 16:27:58;;;;;;;8.07;3.70;;;;;;;22.21;60.35;99886.13;5130966;27;20039;-60
2021/07/26 16:30:24;;;;;;;10.75;3.90;;;;;;;22.18;60.53;99896.31;5139098;27;20022;-60
2021/07/26 16:32:50;;;;;;;5.38;3.97;;;;;;;22.18;60.71;99884.72;5137944;27;20027;-60
2021/07/26 16:35:17;;;;;;;8.25;3.90;;;;;;;22.18;60.75;99892.81;5122109;27;20027;-61
2021/07/26 16:37:44;;;;;;;6.72;4.05;;;;;;;22.18;60.40;99882.88;5131219;27;20549;-60
2021/07/26 16:40:10;;;;;;;7.45;3.63;;;;;;;22.20;60.57;99885.31;5131388;27;20114;-60
2021/07/26 16:42:38;;;;;;;9.88;4.50;;;;;;;22.18;60.40;99890.94;5131221;27;20024;-60
2021/07/26 16:45:05;;;;;;;21.55;6.07;;;;;;;22.19;60.44;99886.34;5134299;27;20024;-61
2021/07/26 16:47:31;;;;;;;17.13;6.75;;;;;;;22.18;60.28;99882.03;5160459;27;20026;-60
2021/07/26 16:49:57;;;;;;;22.23;6.03;;;;;;;22.17;60.49;99888.44;5152010;27;20351;-60
2021/07/26 16:52:23;;;;;;;14.75;5.35;;;;;;;22.12;60.72;99889.16;5156913;27;20075;-60
2021/07/26 16:54:48;;;;;;;13.15;5.00;;;;;;;22.14;60.55;99888.91;5161836;27;20063;-61
2021/07/26 16:57:14;;;;;;;9.95;4.68;;;;;;;22.13;60.48;99895.38;5152538;27;20050;-60
2021/07/26 16:59:40;;;;;;;14.73;4.90;;;;;;;22.13;60.47;99890.00;5134070;27;20477;-60
2021/07/26 17:02:05;;;;;;;11.23;4.45;;;;;;;22.08;60.53;99892.56;5149271;27;20031;-60
2021/07/26 17:04:31;;;;;;;11.68;4.80;;;;;;;22.05;60.65;99897.38;5160985;27;20372;-60
2021/07/26 17:06:57;;;;;;;13.13;4.95;;;;;;;22.05;60.80;99892.00;5148667;27;20137;-61
2021/07/26 17:09:22;;;;;;;18.77;5.03;;;;;;;22.12;60.85;99891.84;5161386;27;20065;-60
2021/07/26 17:11:49;;;;;;;18.40;5.90;;;;;;;22.19;60.81;99891.72;5161689;27;20043;-59
2021/07/26 17:14:18;;;;;;;15.35;4.93;;;;;;;22.24;60.98;99885.63;5143418;27;20054;-56
2021/07/26 17:16:44;;;;;;;11.82;5.10;;;;;;;22.31;60.44;99878.28;5142094;27;20034;-57
2021/07/26 17:19:11;;;;;;;11.20;4.78;;;;;;;22.31;60.87;99879.06;5165990;27;20092;-61
2021/07/26 17:21:37;;;;;;;7.60;3.95;;;;;;;22.29;60.22;99880.38;5148548;27;20468;-63
2021/07/26 17:24:05;;;;;;;9.43;4.00;;;;;;;22.30;60.09;99879.31;5131253;27;20031;-63
2021/07/26 17:26:31;;;;;;;11.40;3.78;;;;;;;22.31;60.49;99881.75;5139865;27;20061;-63
2021/07/26 17:28:57;;;;;;;10.00;4.03;;;;;;;22.34;60.25;99879.66;5163903;27;20038;-60
2021/07/26 17:31:22;;;;;;;13.07;4.97;;;;;;;22.35;60.17;99878.59;5145612;27;20026;-60
2021/07/26 17:33:48;;;;;;;5.20;3.90;;;;;;;22.35;60.02;99874.03;5163044;27;20038;-56
2021/07/26 17:36:14;;;;;;;9.07;4.32;;;;;;;22.37;60.53;99869.25;5152620;27;20030;-56
2021/07/26 17:38:40;;;;;;;11.13;3.70;;;;;;;22.38;60.21;99878.13;5155360;27;20027;-56
2021/07/26 17:41:09;;;;;;;6.53;3.65;;;;;;;22.33;59.88;99881.53;5154718;27;20035;-56
2021/07/26 17:43:36;;;;;;;5.22;3.55;;;;;;;22.36;59.72;99872.97;5134559;27;20063;-58
2021/07/26 17:46:02;;;;;;;6.38;3.72;;;;;;;22.34;59.87;99880.50;5151451;27;20082;-61
2021/07/26 17:48:28;;;;;;;8.65;3.60;;;;;;;22.36;59.76;99885.63;5156829;27;20018;-61
2021/07/26 17:50:54;;;;;;;4.82;3.72;;;;;;;22.45;60.29;99883.38;5165844;27;20049;-58
2021/07/26 17:53:20;;;;;;;7.10;3.55;;;;;;;22.43;59.46;99889.00;5154865;27;20035;-56
2021/07/26 17:55:45;;;;;;;5.93;3.42;;;;;;;22.46;60.09;99885.84;5162854;27;20030;-61
2021/07/26 17:58:11;;;;;;;5.35;3.55;;;;;;;22.47;59.63;99882.09;5153098;27;20038;-62
2021/07/26 18:00:37;;;;;;;3.63;3.22;;;;;;;22.46;59.22;99885.00;5134370;27;20027;-62
2021/07/26 18:03:04;;;;;;;4.47;2.85;;;;;;;22.51;59.32;99883.25;5139262;27;20030;-56
2021/07/26 18:05:31;;;;;;;4.78;2.83;;;;;;;22.49;58.83;99879.97;5134181;27;20030;-55
2021/07/26 18:07:57;;;;;;;3.78;3.38;;;;;;;22.46;58.91;99885.00;5171677;27;20034;-56
2021/07/26 18:10:23;;;;;;;6.40;3.25;;;;;;;22.42;59.20;99890.88;5171510;27;20540;-56
2021/07/26 18:12:50;;;;;;;6.47;3.50;;;;;;;22.43;58.89;99889.00;5140159;27;20484;-56
2021/07/26 18:15:19;;;;;;;6.30;3.42;;;;;;;22.40;59.12;99884.09;5134507;27;20430;-55
2021/07/26 18:17:45;;;;;;;3.38;3.00;;;;;;;22.39;58.97;99877.09;5135344;27;20031;-56
2021/07/26 18:20:12;;;;;;;6.60;3.60;;;;;;;22.36;59.01;99883.75;5133227;27;20034;-56
2021/07/26 18:22:41;;;;;;;4.18;3.53;;;;;;;22.35;59.29;99871.34;5154380;27;20030;-56
2021/07/26 18:25:07;;;;;;;5.60;3.67;;;;;;;22.35;59.28;99879.44;5135037;27;20027;-56
2021/07/26 18:27:35;;;;;;;4.47;3.22;;;;;;;22.33;59.52;99878.84;5149023;27;20031;-57
2021/07/26 18:30:03;;;;;;;4.45;3.30;;;;;;;22.32;59.63;99879.91;5140381;27;20035;-56
2021/07/26 18:32:29;;;;;;;4.40;3.65;;;;;;;22.31;59.91;99881.75;5132529;27;20035;-56
2021/07/26 18:34:54;;;;;;;4.93;3.53;;;;;;;22.33;59.63;99883.41;5132117;27;20039;-55
2021/07/26 18:37:20;;;;;;;6.68;3.60;;;;;;;22.29;60.00;99883.91;5134161;27;20030;-56
2021/07/26 18:39:46;;;;;;;4.25;3.50;;;;;;;22.22;60.73;99880.50;5132749;27;20579;-56
2021/07/26 18:42:14;;;;;;;5.57;3.40;;;;;;;22.21;61.09;99878.03;5132548;27;20595;-55
2021/07/26 18:44:40;;;;;;;5.30;3.70;;;;;;;22.21;60.73;99883.41;5134637;27;20047;-56
2021/07/26 18:47:07;;;;;;;4.60;3.70;;;;;;;22.19;61.94;99880.97;5138244;27;20110;-55
2021/07/26 18:49:33;;;;;;;4.18;3.70;;;;;;;22.08;62.48;99874.53;5134860;27;20058;-56
2021/07/26 18:51:59;;;;;;;4.30;3.45;;;;;;;22.12;62.22;99886.47;5132258;27;20035;-56
2021/07/26 18:54:24;;;;;;;5.32;3.83;;;;;;;22.11;62.51;99874.06;5113509;27;20386;-55
2021/07/26 18:56:50;;;;;;;6.18;3.53;;;;;;;22.08;62.39;99868.34;5135018;27;20030;-55
2021/07/26 18:59:16;;;;;;;5.68;3.20;;;;;;;22.06;62.55;99858.63;5132131;27;20023;-56
2021/07/26 19:01:42;;;;;;;5.88;3.60;;;;;;;22.07;61.47;99843.31;5132384;27;20031;-56
2021/07/26 19:04:08;;;;;;;8.45;2.88;;;;;;;22.09;61.37;99838.50;5131934;27;20209;-56
2021/07/26 19:06:34;;;;;;;6.43;3.80;;;;;;;22.09;61.57;99832.31;5145204;27;20404;-57
2021/07/26 19:08:59;;;;;;;8.85;3.58;;;;;;;22.06;62.15;99833.59;5132809;27;20061;-56
2021/07/26 19:11:25;;;;;;;3.67;3.10;;;;;;;22.05;62.21;99835.47;5151731;27;20031;-56
2021/07/26 19:13:53;;;;;;;4.80;3.25;;;;;;;22.05;62.21;99840.03;5163215;27;20098;-56
2021/07/26 19:16:22;;;;;;;5.18;3.92;;;;;;;22.05;62.57;99838.16;5153022;27;20119;-56
2021/07/26 19:18:47;;;;;;;4.57;3.53;;;;;;;22.02;62.92;99844.03;5168864;27;20751;-56
2021/07/26 19:21:13;;;;;;;5.43;2.85;;;;;;;22.02;62.90;99838.66;5148244;27;20026;-56
2021/07/26 19:23:39;;;;;;;3.88;3.47;;;;;;;22.01;62.97;99841.56;5128860;27;20031;-56
2021/07/26 19:26:04;;;;;;;4.55;3.30;;;;;;;22.03;63.54;99844.81;5125653;27;20034;-56
2021/07/26 19:28:32;;;;;;;6.30;3.25;;;;;;;22.02;63.36;99852.09;5131881;27;20055;-56
2021/07/26 19:30:58;;;;;;;5.65;3.42;;;;;;;22.05;63.48;99845.41;5112975;27;20042;-56
2021/07/26 19:33:24;;;;;;;10.23;3.20;;;;;;;22.03;63.63;99858.28;5131920;27;20122;-55
2021/07/26 19:35:51;;;;;;;7.93;2.95;;;;;;;22.03;63.77;99855.59;5137417;27;20063;-56
2021/07/26 19:38:17;;;;;;;3.88;3.20;;;;;;;22.04;64.10;99858.03;5106448;27;20445;-56
2021/07/26 19:40:42;;;;;;;10.25;3.83;;;;;;;22.04;64.45;99860.72;5136394;27;20114;-57
2021/07/26 19:43:10;;;;;;;6.22;3.40;;;;;;;22.04;64.51;99865.31;5144063;27;20062;-56
2021/07/26 19:45:38;;;;;;;4.22;3.63;;;;;;;22.02;64.41;99862.03;5135524;27;20026;-56
2021/07/26 19:48:06;;;;;;;4.85;3.33;;;;;;;22.04;63.95;99868.00;5150007;27;20026;-55
2021/07/26 19:50:33;;;;;;;3.95;3.47;;;;;;;22.02;64.27;99873.63;5149691;27;20091;-56
2021/07/26 19:53:00;;;;;;;8.77;4.20;;;;;;;21.91;65.81;99880.66;5150287;27;20030;-56
2021/07/26 19:55:26;;;;;;;5.45;4.28;;;;;;;21.80;66.55;99876.09;5148481;27;20053;-55
2021/07/26 19:57:51;;;;;;;4.03;3.33;;;;;;;21.81;66.25;99880.41;5139344;27;20055;-56
2021/07/26 20:00:17;;;;;;;6.15;3.80;;;;;;;21.86;65.73;99883.22;5130557;27;20198;-56
2021/07/26 20:02:44;;;;;;;6.13;3.80;;;;;;;21.84;66.10;99879.94;5131344;27;20099;-56
2021/07/26 20:05:11;;;;;;;4.50;3.97;;;;;;;21.88;65.48;99880.28;5130628;27;20027;-55
2021/07/26 20:07:39;;;;;;;6.07;3.28;;;;;;;21.89;65.52;99882.75;5134411;27;20027;-55
2021/07/26 20:10:07;;;;;;;4.65;3.83;;;;;;;21.85;65.75;99876.19;5112964;27;20035;-56
2021/07/26 20:12:32;;;;;;;7.65;4.18;;;;;;;21.80;65.75;99879.56;5131765;27;20529;-56
2021/07/26 20:14:58;;;;;;;6.40;4.15;;;;;;;21.71;66.16;99878.25;5139310;27;20034;-56
2021/07/26 20:17:24;;;;;;;4.30;3.65;;;;;;;21.60;64.41;99879.88;5152568;27;20342;-56
2021/07/26 20:19:49;;;;;;;3.78;1.85;;;;;;;21.35;60.36;99886.28;5123907;27;20213;-57
2021/07/26 20:22:15;;;;;;;5.43;1.52;;;;;;;21.16;60.16;99886.34;5135206;27;20378;-57
2021/07/26 20:24:41;;;;;;;2.45;1.40;;;;;;;21.16;59.58;99898.97;5171997;27;20539;-57
2021/07/26 20:27:07;;;;;;;4.07;1.38;;;;;;;21.02;60.41;99892.94;5156691;27;20038;-58
2021/07/26 20:29:35;;;;;;;3.03;1.35;;;;;;;21.01;60.30;99902.88;5151830;27;20057;-58
2021/07/26 20:32:00;;;;;;;2.53;1.30;;;;;;;20.89;60.22;99904.66;5143158;27;20497;-58